Time;durP1;ratioP1;P1;durP2;ratioP2;P2;SDS_P1;SDS_P2;PMS_P1;PMS_P2;Temp;Humidity;BMP_temperature;BMP_pressure;BME280_temperature;BME280_humidity;BME280_pressure;Samples;Min_cycle;Max_cycle;Signal;HPM_P1;HPM_P2
2022/12/22 03:27:37;;;;;;;31.53;14.10;;;6.00;99.90;;;;;;4999185;28;20235;-79
2022/12/22 03:30:05;;;;;;;18.90;12.67;;;6.00;99.90;;;;;;4980142;28;20233;-79
2022/12/22 03:32:33;;;;;;;19.50;13.07;;;6.00;99.90;;;;;;4994415;28;20233;-79
2022/12/22 03:35:00;;;;;;;31.83;12.97;;;6.00;99.90;;;;;;4999249;28;20220;-79
2022/12/22 03:37:27;;;;;;;18.53;12.63;;;6.00;99.90;;;;;;4983254;28;20256;-79
2022/12/22 03:39:54;;;;;;;16.47;11.97;;;6.00;99.90;;;;;;4997066;28;20231;-79
2022/12/22 03:47:52;;;;;;;19.17;11.23;;;6.00;99.90;;;;;;4995285;28;20224;-79
2022/12/22 03:50:19;;;;;;;18.97;10.87;;;6.10;99.90;;;;;;4990542;28;20239;-78
2022/12/22 03:52:45;;;;;;;13.07;10.47;;;6.10;99.90;;;;;;4997955;28;21928;-78
2022/12/22 03:55:12;;;;;;;14.37;9.67;;;6.10;99.90;;;;;;4993743;28;20331;-79
2022/12/22 03:57:39;;;;;;;16.23;10.03;;;6.10;99.90;;;;;;4997715;28;20232;-78
2022/12/22 04:00:07;;;;;;;13.30;9.60;;;6.10;99.90;;;;;;4982786;28;20267;-78
2022/12/22 04:02:38;;;;;;;29.30;11.33;;;6.10;99.90;;;;;;4998609;28;20224;-78
2022/12/22 04:05:07;;;;;;;15.30;10.37;;;6.10;99.90;;;;;;4999447;28;20302;-78
2022/12/22 04:07:34;;;;;;;18.17;10.23;;;6.10;99.90;;;;;;5003030;28;20249;-77
2022/12/22 04:12:54;;;;;;;20.43;10.90;;;6.20;99.90;;;;;;4997940;28;20224;-77
2022/12/22 04:15:22;;;;;;;16.90;10.27;;;6.20;99.90;;;;;;4997678;28;20227;-78
2022/12/22 04:17:48;;;;;;;27.07;12.30;;;6.20;99.90;;;;;;4999352;28;20226;-78
2022/12/22 04:20:17;;;;;;;16.90;11.63;;;6.20;99.90;;;;;;5016451;23;20214;-78
2022/12/22 04:22:46;;;;;;;20.13;11.77;;;6.20;99.90;;;;;;5059160;28;20226;-79
2022/12/22 04:25:13;;;;;;;15.13;11.10;;;6.20;99.90;;;;;;5061574;28;20219;-80
2022/12/22 04:27:42;;;;;;;20.50;11.27;;;6.20;99.90;;;;;;5055293;28;20237;-81
2022/12/22 04:30:10;;;;;;;14.60;10.97;;;6.20;99.90;;;;;;5050550;28;20307;-80
2022/12/22 04:32:37;;;;;;;15.43;11.00;;;6.30;99.90;;;;;;5061158;28;20225;-79
2022/12/22 04:35:06;;;;;;;19.10;11.07;;;6.30;99.90;;;;;;5062232;28;21132;-79
2022/12/22 04:37:34;;;;;;;16.77;11.20;;;6.30;99.90;;;;;;5059877;28;20226;-80
2022/12/22 04:40:01;;;;;;;15.20;10.57;;;6.30;99.90;;;;;;5057863;28;20293;-80
2022/12/22 04:42:30;;;;;;;17.17;10.40;;;6.30;99.90;;;;;;5054873;28;20237;-79
2022/12/22 04:44:56;;;;;;;12.53;10.10;;;6.30;99.90;;;;;;5061814;28;20224;-80
2022/12/22 04:47:23;;;;;;;11.60;10.23;;;6.30;99.90;;;;;;5055931;28;20689;-79
2022/12/22 04:49:49;;;;;;;17.20;10.50;;;6.30;99.90;;;;;;5064099;28;20227;-79
2022/12/22 04:52:16;;;;;;;60.03;13.80;;;6.30;99.90;;;;;;5053593;28;20235;-81
2022/12/22 04:54:44;;;;;;;14.00;10.50;;;6.40;99.90;;;;;;5060350;28;20236;-80
2022/12/22 04:57:11;;;;;;;17.47;11.43;;;6.30;99.90;;;;;;5061536;28;20230;-81
2022/12/22 04:59:38;;;;;;;15.77;11.90;;;6.30;99.90;;;;;;5052892;28;20241;-81
2022/12/22 05:02:05;;;;;;;15.77;11.47;;;6.30;99.90;;;;;;5051926;28;20227;-81
2022/12/22 05:04:32;;;;;;;16.00;11.13;;;6.30;99.90;;;;;;5055205;28;20233;-80
2022/12/22 05:06:59;;;;;;;14.17;11.07;;;6.30;99.90;;;;;;5060361;28;20330;-80
2022/12/22 05:09:26;;;;;;;16.10;12.03;;;6.30;99.90;;;;;;5053366;28;20793;-80
2022/12/22 05:11:54;;;;;;;23.73;12.73;;;6.30;99.90;;;;;;5050017;28;20231;-81
2022/12/22 05:14:21;;;;;;;18.13;12.23;;;6.30;99.90;;;;;;5058773;28;20237;-80
2022/12/22 05:16:47;;;;;;;21.80;12.40;;;6.30;99.90;;;;;;5055802;28;20290;-80
2022/12/22 05:19:14;;;;;;;18.47;13.10;;;6.30;99.90;;;;;;5061890;28;20226;-80
2022/12/22 05:21:41;;;;;;;19.90;13.13;;;6.30;99.90;;;;;;5051679;28;20334;-82
2022/12/22 05:24:08;;;;;;;18.67;12.70;;;6.30;99.90;;;;;;5058645;28;20733;-83
2022/12/22 05:26:34;;;;;;;18.00;13.53;;;6.30;99.90;;;;;;5055367;28;20227;-82
2022/12/22 05:29:02;;;;;;;23.33;13.30;;;6.30;99.90;;;;;;5052446;28;20917;-81
2022/12/22 05:31:29;;;;;;;20.13;13.17;;;6.30;99.90;;;;;;5052265;28;20230;-85
2022/12/22 05:33:56;;;;;;;19.97;13.03;;;6.30;99.90;;;;;;5057374;28;20223;-83
2022/12/22 05:36:22;;;;;;;18.90;13.77;;;6.30;99.90;;;;;;5062817;28;20226;-83
2022/12/22 05:38:49;;;;;;;38.67;14.57;;;6.30;99.90;;;;;;5055692;28;20220;-83
2022/12/22 05:41:16;;;;;;;20.17;13.37;;;6.30;99.90;;;;;;5049473;28;20328;-83
2022/12/22 05:43:43;;;;;;;28.17;13.90;;;6.30;99.90;;;;;;5055716;28;20644;-83
2022/12/22 05:46:11;;;;;;;19.23;12.70;;;6.30;99.90;;;;;;5057212;28;20233;-84
2022/12/22 05:48:39;;;;;;;47.50;15.10;;;6.30;99.90;;;;;;5051260;28;20239;-83
2022/12/22 05:51:07;;;;;;;34.90;14.17;;;6.30;99.90;;;;;;5060293;28;20228;-83
2022/12/22 05:53:34;;;;;;;21.43;13.70;;;6.30;99.90;;;;;;5056463;28;20250;-83
2022/12/22 05:56:01;;;;;;;21.53;13.37;;;6.40;99.90;;;;;;5056924;28;20252;-83
2022/12/22 05:58:28;;;;;;;20.97;14.43;;;6.40;99.90;;;;;;5051075;28;20231;-83
2022/12/22 06:00:57;;;;;;;19.33;14.50;;;6.40;99.90;;;;;;5053492;28;20228;-82
2022/12/22 06:03:25;;;;;;;19.13;14.20;;;6.40;99.90;;;;;;5074866;28;20266;-83
2022/12/22 06:05:52;;;;;;;22.67;13.77;;;6.40;99.90;;;;;;5047379;28;20867;-84
2022/12/22 06:08:20;;;;;;;20.13;13.13;;;6.50;99.90;;;;;;5054776;28;20232;-84
2022/12/22 06:10:46;;;;;;;24.83;13.60;;;6.50;99.90;;;;;;5051533;28;20223;-83
2022/12/22 06:13:13;;;;;;;20.67;13.63;;;6.40;99.90;;;;;;5055940;28;20617;-85
2022/12/22 06:15:40;;;;;;;21.43;15.00;;;6.50;99.90;;;;;;5072602;28;20227;-83
2022/12/22 06:18:07;;;;;;;19.00;13.73;;;6.40;99.90;;;;;;5054214;28;20338;-84
2022/12/22 06:20:35;;;;;;;20.30;14.13;;;6.50;99.90;;;;;;5057216;28;20412;-85
2022/12/22 06:23:01;;;;;;;20.73;13.77;;;6.50;99.90;;;;;;5059317;28;20240;-85
2022/12/22 06:25:31;;;;;;;24.20;13.53;;;6.50;99.90;;;;;;5056817;28;20899;-84
2022/12/22 06:27:58;;;;;;;26.90;14.47;;;6.50;99.90;;;;;;5053587;28;20312;-85
2022/12/22 06:30:25;;;;;;;31.20;14.67;;;6.50;99.90;;;;;;5055268;28;20230;-84
2022/12/22 06:32:52;;;;;;;25.03;14.43;;;6.50;99.90;;;;;;5050485;28;20298;-85
2022/12/22 06:35:19;;;;;;;36.07;15.07;;;6.50;99.90;;;;;;5056452;28;20222;-82
2022/12/22 06:37:49;;;;;;;21.07;13.93;;;6.50;99.90;;;;;;5056246;28;20273;-84
2022/12/22 06:40:16;;;;;;;20.07;13.53;;;6.50;99.90;;;;;;5054105;28;20294;-83
2022/12/22 06:45:27;;;;;;;20.00;13.87;;;6.50;99.90;;;;;;5059691;28;20335;-84
2022/12/22 06:47:54;;;;;;;34.73;17.10;;;6.50;99.90;;;;;;5052555;28;20233;-84
2022/12/22 06:50:22;;;;;;;23.50;15.27;;;6.50;99.90;;;;;;5056609;28;20873;-83
2022/12/22 06:52:50;;;;;;;27.67;16.53;;;6.50;99.90;;;;;;5051613;28;20323;-84
2022/12/22 06:55:17;;;;;;;21.03;15.43;;;6.50;99.90;;;;;;5055868;28;20773;-84
2022/12/22 06:57:44;;;;;;;67.40;33.30;;;6.50;99.90;;;;;;5051828;28;20326;-83
2022/12/22 07:00:11;;;;;;;25.73;17.07;;;6.50;99.90;;;;;;5054559;28;20250;-84
2022/12/22 07:02:38;;;;;;;25.17;17.50;;;6.50;99.90;;;;;;5047222;28;21083;-84
2022/12/22 07:05:05;;;;;;;20.67;15.43;;;6.50;99.90;;;;;;5055731;28;20227;-84
2022/12/22 07:07:32;;;;;;;24.20;16.80;;;6.50;99.90;;;;;;5053162;28;20229;-84
2022/12/22 07:10:00;;;;;;;21.37;15.03;;;6.50;99.90;;;;;;5068859;28;20230;-83
2022/12/22 07:12:27;;;;;;;27.17;14.93;;;6.50;99.90;;;;;;5058593;28;20577;-83
2022/12/22 07:14:54;;;;;;;21.40;14.43;;;6.50;99.90;;;;;;5050971;28;20230;-84
2022/12/22 07:17:20;;;;;;;20.33;13.90;;;6.50;99.90;;;;;;5047678;28;20232;-84
2022/12/22 07:19:47;;;;;;;19.57;15.50;;;6.60;99.90;;;;;;5059162;28;20224;-84
2022/12/22 07:22:14;;;;;;;23.80;16.03;;;6.60;99.90;;;;;;5045510;28;20235;-83
2022/12/22 07:24:40;;;;;;;21.63;15.70;;;6.60;99.90;;;;;;5055670;28;20215;-83
2022/12/22 07:27:09;;;;;;;21.90;13.93;;;6.60;99.90;;;;;;5051191;28;20221;-84
2022/12/22 07:29:36;;;;;;;21.00;14.83;;;6.60;99.90;;;;;;5054791;28;20226;-84
2022/12/22 07:32:03;;;;;;;23.83;15.63;;;6.60;99.90;;;;;;5055580;28;20216;-84
2022/12/22 07:34:30;;;;;;;32.47;15.40;;;6.60;99.90;;;;;;5052542;28;20301;-84
2022/12/22 07:36:56;;;;;;;24.27;14.93;;;6.70;99.90;;;;;;5055284;28;20319;-84
2022/12/22 07:39:23;;;;;;;26.77;15.27;;;6.70;99.90;;;;;;5056164;28;20310;-81
2022/12/22 07:44:35;;;;;;;20.07;13.47;;;6.70;99.90;;;;;;5048891;28;20588;-81
2022/12/22 07:47:02;;;;;;;21.80;14.90;;;6.70;99.90;;;;;;5054909;28;20611;-83
2022/12/22 07:52:15;;;;;;;26.13;15.13;;;6.60;99.90;;;;;;5022892;28;20281;-82
2022/12/22 07:54:42;;;;;;;21.20;15.57;;;6.60;99.90;;;;;;5050940;28;20222;-82
2022/12/22 07:57:09;;;;;;;19.70;14.73;;;6.70;99.90;;;;;;5055465;28;20238;-82
2022/12/22 07:59:37;;;;;;;20.03;13.30;;;6.60;99.90;;;;;;5053998;28;20254;-82
2022/12/22 08:02:03;;;;;;;21.40;14.33;;;6.70;99.90;;;;;;5063745;28;20252;-83
2022/12/22 08:04:30;;;;;;;24.50;14.53;;;6.70;99.90;;;;;;5053626;28;20228;-82
2022/12/22 08:06:57;;;;;;;19.60;14.63;;;6.70;99.90;;;;;;5055431;28;20705;-83
2022/12/22 08:09:23;;;;;;;22.53;15.13;;;6.70;99.90;;;;;;5053519;28;20234;-83
2022/12/22 08:11:50;;;;;;;20.43;14.37;;;6.70;99.90;;;;;;5063608;28;20632;-83
2022/12/22 08:14:17;;;;;;;26.43;15.27;;;6.70;99.90;;;;;;5062050;28;20253;-83
2022/12/22 08:16:45;;;;;;;29.63;15.70;;;6.70;99.90;;;;;;5061516;28;20456;-84
2022/12/22 08:19:11;;;;;;;21.57;14.47;;;6.70;99.90;;;;;;5060899;28;20711;-83
2022/12/22 08:21:38;;;;;;;21.33;14.63;;;6.70;99.90;;;;;;5060968;28;20680;-84
2022/12/22 08:24:08;;;;;;;35.67;15.10;;;6.70;99.90;;;;;;5055004;28;20234;-83
2022/12/22 08:26:37;;;;;;;20.43;13.93;;;6.70;99.90;;;;;;5060910;28;20283;-83
2022/12/22 08:29:08;;;;;;;21.53;14.97;;;6.70;99.90;;;;;;5057455;28;20224;-84
2022/12/22 08:31:35;;;;;;;19.27;14.33;;;6.70;99.90;;;;;;5063614;28;20220;-83
2022/12/22 08:34:07;;;;;;;19.50;13.37;;;6.70;99.90;;;;;;5059487;28;20222;-84
2022/12/22 08:36:39;;;;;;;18.37;13.67;;;6.70;99.90;;;;;;5052626;28;20224;-83
2022/12/22 08:39:07;;;;;;;17.90;13.10;;;6.80;99.90;;;;;;5040371;28;20711;-83
2022/12/22 08:41:50;;;;;;;20.73;12.90;;;6.80;99.90;;;;;;5059026;28;20241;-83
2022/12/22 08:44:19;;;;;;;19.40;12.63;;;6.80;99.90;;;;;;5059760;28;20224;-83
2022/12/22 08:46:48;;;;;;;19.40;12.63;;;6.80;99.90;;;;;;5071264;28;20652;-83
2022/12/22 08:49:16;;;;;;;19.43;13.40;;;6.80;99.90;;;;;;5055746;28;20221;-84
2022/12/22 08:51:43;;;;;;;18.93;12.67;;;6.80;99.90;;;;;;5058561;28;20216;-85
2022/12/22 08:54:10;;;;;;;18.20;13.73;;;6.80;99.90;;;;;;5053845;28;20228;-83
2022/12/22 08:56:37;;;;;;;18.83;13.70;;;6.90;99.90;;;;;;5063509;28;20227;-83
2022/12/22 08:59:06;;;;;;;18.70;13.07;;;6.90;99.90;;;;;;5056925;28;20784;-82
2022/12/22 09:01:35;;;;;;;22.37;13.33;;;6.90;99.90;;;;;;5054280;28;20907;-81
2022/12/22 09:04:02;;;;;;;19.70;12.73;;;6.90;99.90;;;;;;5050816;28;20589;-82
2022/12/22 09:06:31;;;;;;;62.60;16.40;;;6.90;99.90;;;;;;5052714;28;20878;-81
2022/12/22 09:09:00;;;;;;;19.77;13.90;;;6.90;99.90;;;;;;5056060;28;20237;-81
2022/12/22 09:11:27;;;;;;;16.33;12.43;;;6.90;99.90;;;;;;5069243;28;20937;-81
2022/12/22 09:13:58;;;;;;;17.73;12.73;;;6.90;99.90;;;;;;5053707;28;20211;-81
2022/12/22 09:16:26;;;;;;;18.30;13.50;;;6.90;99.90;;;;;;5057002;28;20220;-81
2022/12/22 09:18:53;;;;;;;17.73;13.10;;;6.90;99.90;;;;;;5055012;28;20903;-81
2022/12/22 09:21:20;;;;;;;21.27;14.27;;;6.90;99.90;;;;;;5060055;28;20299;-81
2022/12/22 09:23:48;;;;;;;27.73;17.33;;;7.00;99.90;;;;;;5063127;28;20226;-81
2022/12/22 09:26:17;;;;;;;18.30;13.03;;;7.00;99.90;;;;;;5062238;28;20249;-81
2022/12/22 09:28:44;;;;;;;18.10;12.13;;;7.00;99.90;;;;;;5062476;28;20274;-81
2022/12/22 09:31:14;;;;;;;17.07;12.37;;;7.00;99.90;;;;;;5050510;28;20234;-81
2022/12/22 09:33:40;;;;;;;23.83;12.73;;;7.00;99.90;;;;;;5071695;28;20219;-81
2022/12/22 09:36:08;;;;;;;22.50;14.17;;;7.10;99.90;;;;;;5061053;28;20244;-81
2022/12/22 09:38:36;;;;;;;23.67;14.50;;;7.10;99.90;;;;;;5053418;28;20222;-80
2022/12/22 09:41:11;;;;;;;19.00;13.43;;;7.10;99.90;;;;;;5059677;28;20309;-81
2022/12/22 09:43:38;;;;;;;18.60;13.70;;;7.20;99.90;;;;;;5055443;28;20879;-81
2022/12/22 09:46:05;;;;;;;23.13;14.33;;;7.30;99.90;;;;;;5052025;28;20736;-82
2022/12/22 09:48:35;;;;;;;17.77;13.13;;;7.30;99.90;;;;;;5053153;28;20817;-82
2022/12/22 09:51:03;;;;;;;20.03;12.47;;;7.40;99.90;;;;;;5046358;28;20296;-82
2022/12/22 09:53:30;;;;;;;16.60;11.90;;;7.40;99.90;;;;;;5045125;28;20228;-81
2022/12/22 09:55:57;;;;;;;17.60;12.63;;;7.40;99.90;;;;;;5051118;28;20386;-82
2022/12/22 09:58:28;;;;;;;19.77;13.83;;;7.50;99.90;;;;;;5045699;28;20316;-82
2022/12/22 10:01:02;;;;;;;19.33;13.07;;;7.50;99.90;;;;;;5036246;28;20243;-81
2022/12/22 10:03:37;;;;;;;16.80;12.60;;;7.50;99.90;;;;;;5071780;28;20249;-82
2022/12/22 10:06:10;;;;;;;22.10;13.67;;;7.50;99.90;;;;;;5043299;28;20224;-81
2022/12/22 10:08:39;;;;;;;20.33;13.70;;;7.60;99.90;;;;;;5044017;28;20278;-81
2022/12/22 10:11:07;;;;;;;18.83;13.53;;;7.60;99.90;;;;;;5064348;28;20308;-82
2022/12/22 10:13:35;;;;;;;23.30;14.47;;;7.60;99.90;;;;;;5063392;28;20223;-82
2022/12/22 10:16:15;;;;;;;23.37;13.70;;;7.60;99.90;;;;;;5051919;28;20227;-80
2022/12/22 10:18:55;;;;;;;21.93;15.80;;;7.70;99.90;;;;;;5043694;28;20241;-80
2022/12/22 10:21:26;;;;;;;20.07;14.63;;;7.70;99.90;;;;;;5058873;28;20225;-80
2022/12/22 10:23:53;;;;;;;24.47;16.03;;;7.80;99.90;;;;;;5056661;28;20231;-80
2022/12/22 10:26:23;;;;;;;23.57;16.57;;;7.70;99.90;;;;;;5046958;28;20670;-80
2022/12/22 10:28:55;;;;;;;21.63;15.00;;;7.70;99.90;;;;;;5060616;28;20229;-80
2022/12/22 10:31:23;;;;;;;23.73;16.70;;;7.70;99.90;;;;;;5056648;28;20231;-79
2022/12/22 10:33:52;;;;;;;22.40;15.90;;;7.80;99.90;;;;;;5048158;28;21739;-80
2022/12/22 10:36:23;;;;;;;22.27;15.87;;;7.80;99.90;;;;;;5050325;28;20228;-79
2022/12/22 10:38:59;;;;;;;24.70;16.53;;;7.80;99.90;;;;;;5052816;28;20230;-79
2022/12/22 10:41:28;;;;;;;22.83;15.93;;;7.80;99.90;;;;;;5047682;28;20696;-79
2022/12/22 10:43:58;;;;;;;24.03;15.57;;;7.80;99.90;;;;;;5048877;28;20249;-79
2022/12/22 10:46:38;;;;;;;23.27;15.40;;;7.80;99.90;;;;;;5045696;28;20796;-79
2022/12/22 10:49:24;;;;;;;20.87;14.53;;;7.80;99.90;;;;;;5058085;28;20228;-82
2022/12/22 10:51:54;;;;;;;21.73;14.23;;;7.90;99.90;;;;;;5061790;28;20234;-82
2022/12/22 10:54:29;;;;;;;20.67;13.87;;;7.90;99.90;;;;;;5051940;28;20225;-82
2022/12/22 10:57:01;;;;;;;20.03;12.73;;;7.90;99.90;;;;;;5054341;28;20221;-81
2022/12/22 10:59:30;;;;;;;20.87;13.73;;;7.90;99.90;;;;;;5062218;28;20294;-81
2022/12/22 11:02:26;;;;;;;20.83;12.90;;;7.90;99.90;;;;;;5055395;28;20232;-84
2022/12/22 11:04:53;;;;;;;21.13;14.53;;;8.00;99.90;;;;;;5052518;28;20226;-83
2022/12/22 11:07:20;;;;;;;24.63;13.80;;;8.00;99.90;;;;;;5048612;28;20415;-83
2022/12/22 11:09:47;;;;;;;19.90;13.83;;;8.00;99.90;;;;;;5067029;28;20838;-84
2022/12/22 11:12:24;;;;;;;21.03;13.97;;;8.00;99.90;;;;;;5056929;28;20246;-82
2022/12/22 11:14:58;;;;;;;17.73;13.17;;;8.00;99.90;;;;;;5062805;28;20251;-83
2022/12/22 11:17:32;;;;;;;18.67;12.90;;;8.10;99.90;;;;;;5057045;28;20238;-83
2022/12/22 11:20:21;;;;;;;20.07;13.33;;;8.10;99.90;;;;;;5056075;28;20758;-84
2022/12/22 11:22:53;;;;;;;21.93;15.10;;;8.20;99.90;;;;;;5060488;28;20221;-83
2022/12/22 11:25:30;;;;;;;21.97;13.83;;;8.20;99.90;;;;;;5056554;28;20228;-83
2022/12/22 11:28:10;;;;;;;18.37;12.93;;;8.30;99.90;;;;;;5051061;28;20676;-82
2022/12/22 11:30:48;;;;;;;18.23;14.07;;;8.30;99.90;;;;;;5054273;28;20325;-83
2022/12/22 11:33:26;;;;;;;19.23;13.17;;;8.40;99.90;;;;;;5054658;28;20216;-83
2022/12/22 11:35:58;;;;;;;18.20;13.00;;;8.40;99.90;;;;;;5048570;28;20236;-83
2022/12/22 11:38:46;;;;;;;17.03;12.73;;;8.40;99.90;;;;;;5058600;28;22076;-83
2022/12/22 11:41:25;;;;;;;16.47;12.47;;;8.40;99.90;;;;;;5058123;28;20224;-81
2022/12/22 11:44:05;;;;;;;15.77;12.03;;;8.40;99.90;;;;;;5061063;28;20273;-80
2022/12/22 11:46:44;;;;;;;17.70;12.80;;;8.40;99.90;;;;;;5053068;28;20255;-83
2022/12/22 11:49:34;;;;;;;18.30;12.40;;;8.40;99.90;;;;;;5060359;28;20227;-84
2022/12/22 11:52:12;;;;;;;18.30;12.23;;;8.30;99.90;;;;;;5070798;28;20225;-84
2022/12/22 11:54:45;;;;;;;19.63;13.37;;;8.40;99.90;;;;;;5056314;28;20225;-84
2022/12/22 11:57:23;;;;;;;16.53;12.10;;;8.40;99.90;;;;;;5046143;28;20891;-85
2022/12/22 12:00:00;;;;;;;17.23;11.87;;;8.50;99.90;;;;;;5056065;28;20249;-84
2022/12/22 12:03:02;;;;;;;16.27;11.17;;;8.50;99.90;;;;;;5060195;28;20625;-82
2022/12/22 12:05:42;;;;;;;17.13;11.57;;;8.60;99.90;;;;;;5057998;28;20220;-82
2022/12/22 12:08:20;;;;;;;17.83;12.27;;;8.80;99.90;;;;;;5053182;28;20235;-82
2022/12/22 12:10:51;;;;;;;18.70;11.47;;;8.90;99.90;;;;;;5055311;28;20216;-83
2022/12/22 12:13:27;;;;;;;18.73;12.00;;;9.00;99.90;;;;;;5050192;28;20241;-81
2022/12/22 12:16:05;;;;;;;17.00;12.07;;;9.00;99.90;;;;;;5069307;28;20226;-82
2022/12/22 12:18:48;;;;;;;18.50;11.60;;;9.10;99.90;;;;;;5050386;28;20226;-81
2022/12/22 12:21:27;;;;;;;16.27;11.47;;;9.20;99.90;;;;;;5050879;28;20237;-83
2022/12/22 12:24:25;;;;;;;16.30;11.20;;;9.30;99.90;;;;;;5052478;28;20245;-82
2022/12/22 12:27:02;;;;;;;14.00;9.87;;;9.30;99.90;;;;;;5063382;28;20228;-82
2022/12/22 12:29:37;;;;;;;14.07;10.00;;;9.30;99.90;;;;;;5048994;28;20241;-82
2022/12/22 12:32:07;;;;;;;14.53;9.97;;;9.20;99.90;;;;;;5051670;28;20230;-82
2022/12/22 12:34:39;;;;;;;13.97;10.03;;;9.20;99.90;;;;;;5066641;28;20219;-82
2022/12/22 12:37:13;;;;;;;15.93;10.40;;;9.20;99.90;;;;;;5071249;28;20480;-82
2022/12/22 12:39:50;;;;;;;13.80;10.63;;;9.20;99.90;;;;;;5072241;28;20252;-82
2022/12/22 12:42:27;;;;;;;14.63;9.57;;;9.10;99.90;;;;;;5068631;28;20325;-82
2022/12/22 12:44:54;;;;;;;14.60;10.33;;;9.00;99.90;;;;;;5066329;28;20220;-82
2022/12/22 12:47:24;;;;;;;14.40;9.23;;;9.00;99.90;;;;;;5054430;28;20257;-81
2022/12/22 12:49:54;;;;;;;14.20;9.23;;;8.90;99.90;;;;;;5070364;28;20223;-82
2022/12/22 12:53:15;;;;;;;12.90;9.43;;;8.80;99.90;;;;;;5067804;28;20811;-82
2022/12/22 12:56:08;;;;;;;13.33;9.17;;;8.60;99.90;;;;;;5070442;28;20737;-83
2022/12/22 12:58:57;;;;;;;14.57;9.70;;;8.50;99.90;;;;;;5054592;28;20221;-82
2022/12/22 13:02:01;;;;;;;12.40;8.70;;;8.40;99.90;;;;;;5057523;28;21712;-81
2022/12/22 13:05:04;;;;;;;14.93;9.57;;;8.20;99.90;;;;;;5058776;28;20770;-81
2022/12/22 13:08:09;;;;;;;14.67;9.20;;;8.10;99.90;;;;;;5066668;28;20234;-81
2022/12/22 13:10:39;;;;;;;17.10;10.60;;;8.00;99.90;;;;;;5044995;28;20221;-83
2022/12/22 13:13:41;;;;;;;16.60;9.70;;;7.90;99.90;;;;;;5054437;28;20511;-82
2022/12/22 13:16:23;;;;;;;14.27;9.30;;;7.80;99.90;;;;;;5048739;28;20323;-82
2022/12/22 13:18:50;;;;;;;18.43;10.67;;;7.80;99.90;;;;;;5067005;28;20218;-82
2022/12/22 13:21:24;;;;;;;15.87;10.13;;;7.80;99.90;;;;;;5065777;28;20250;-81
2022/12/22 13:23:59;;;;;;;15.13;9.57;;;7.80;99.90;;;;;;5065151;28;20216;-83
2022/12/22 13:26:32;;;;;;;13.30;8.97;;;7.80;99.90;;;;;;5065512;28;20874;-83
2022/12/22 13:29:03;;;;;;;12.77;9.07;;;7.80;99.90;;;;;;5055925;28;20252;-82
2022/12/22 13:31:35;;;;;;;11.10;7.33;;;7.90;99.90;;;;;;5062333;28;20239;-81
2022/12/22 13:34:07;;;;;;;12.80;7.73;;;7.90;99.90;;;;;;5048338;28;20589;-82
2022/12/22 13:36:36;;;;;;;14.70;8.07;;;7.90;99.90;;;;;;5063149;28;20312;-81
2022/12/22 13:39:14;;;;;;;10.63;7.57;;;7.90;99.90;;;;;;5066142;28;20233;-82
2022/12/22 13:41:43;;;;;;;12.50;7.73;;;7.90;99.90;;;;;;5060877;28;20899;-81
2022/12/22 13:44:20;;;;;;;12.20;7.73;;;7.90;99.90;;;;;;5066683;28;20241;-81
2022/12/22 13:46:47;;;;;;;14.60;8.63;;;7.90;99.90;;;;;;5063784;28;20249;-80
2022/12/22 13:49:18;;;;;;;14.47;8.90;;;7.90;99.90;;;;;;5050618;28;20226;-81
2022/12/22 13:51:47;;;;;;;13.77;8.60;;;7.90;99.90;;;;;;5053226;28;20232;-82
2022/12/22 13:54:18;;;;;;;14.10;9.00;;;7.80;99.90;;;;;;5055774;28;20220;-82
2022/12/22 13:56:48;;;;;;;12.73;8.17;;;7.80;99.90;;;;;;5037630;28;20313;-81
2022/12/22 13:59:27;;;;;;;14.90;8.17;;;7.80;99.90;;;;;;5046482;28;20247;-82
2022/12/22 14:01:58;;;;;;;14.83;8.43;;;7.80;99.90;;;;;;5054330;28;20270;-82
2022/12/22 14:04:24;;;;;;;13.13;8.90;;;7.80;99.90;;;;;;5054987;28;20603;-82
2022/12/22 14:06:53;;;;;;;15.03;8.67;;;7.80;99.90;;;;;;5054853;28;20220;-82
2022/12/22 14:09:22;;;;;;;15.37;8.23;;;7.80;99.90;;;;;;5061345;28;20538;-81
2022/12/22 14:11:51;;;;;;;15.10;8.33;;;7.80;99.90;;;;;;5057924;28;20229;-81
2022/12/22 14:14:22;;;;;;;14.83;8.03;;;7.80;99.90;;;;;;5049058;28;20699;-83
2022/12/22 14:16:51;;;;;;;16.33;8.33;;;7.80;99.90;;;;;;5061263;28;20244;-80
2022/12/22 14:19:19;;;;;;;14.50;7.80;;;7.90;99.90;;;;;;5059876;28;20234;-80
2022/12/22 14:21:50;;;;;;;15.27;8.67;;;7.90;99.90;;;;;;5053773;28;20245;-84
2022/12/22 14:24:22;;;;;;;12.10;8.27;;;7.90;99.90;;;;;;5052680;28;20252;-81
2022/12/22 14:26:50;;;;;;;13.63;8.23;;;7.90;99.90;;;;;;5052188;28;20894;-81
2022/12/22 14:29:22;;;;;;;14.00;8.40;;;7.90;99.90;;;;;;5047727;28;20279;-79
2022/12/22 14:31:56;;;;;;;14.83;8.50;;;7.80;99.90;;;;;;5053148;28;20238;-81
2022/12/22 14:34:25;;;;;;;13.87;8.73;;;7.80;99.90;;;;;;5048473;28;20597;-79
2022/12/22 14:36:52;;;;;;;14.50;8.23;;;7.80;99.90;;;;;;5062555;28;20372;-81
2022/12/22 14:39:22;;;;;;;15.07;8.30;;;7.70;99.90;;;;;;5056611;28;20217;-82
2022/12/22 14:41:51;;;;;;;15.03;8.47;;;7.70;99.90;;;;;;5058690;28;20221;-82
2022/12/22 14:44:23;;;;;;;15.43;8.40;;;7.70;99.90;;;;;;5056616;28;20691;-82
2022/12/22 14:47:13;;;;;;;16.00;8.47;;;7.60;99.90;;;;;;5059319;28;20309;-83
2022/12/22 14:49:45;;;;;;;17.23;8.20;;;7.50;99.90;;;;;;5063713;28;20234;-83
2022/12/22 14:52:20;;;;;;;15.97;8.37;;;7.50;99.90;;;;;;5060961;28;20232;-82
2022/12/22 14:54:49;;;;;;;16.80;8.50;;;7.40;99.90;;;;;;5053207;28;20226;-82
2022/12/22 14:57:23;;;;;;;19.40;8.73;;;7.30;99.90;;;;;;5065068;28;20228;-82
2022/12/22 15:00:06;;;;;;;16.03;8.37;;;7.20;99.90;;;;;;5051715;28;20221;-82
2022/12/22 15:02:35;;;;;;;17.53;8.37;;;7.10;99.90;;;;;;5062722;28;20235;-80
2022/12/22 15:05:13;;;;;;;14.03;7.77;;;7.10;99.90;;;;;;5057350;28;20296;-81
2022/12/22 15:07:50;;;;;;;15.20;8.23;;;6.90;99.90;;;;;;5067321;28;20872;-81
2022/12/22 15:10:18;;;;;;;15.07;8.40;;;6.90;99.90;;;;;;5062777;28;20226;-81
2022/12/22 15:12:46;;;;;;;12.93;7.97;;;6.80;99.90;;;;;;5053487;28;20220;-82
2022/12/22 15:15:16;;;;;;;16.20;8.73;;;6.70;99.90;;;;;;5055146;28;20228;-83
2022/12/22 15:17:45;;;;;;;17.17;8.47;;;6.70;99.90;;;;;;5063943;28;20288;-82
2022/12/22 15:20:16;;;;;;;16.13;8.10;;;6.70;99.90;;;;;;5059528;28;20311;-81
2022/12/22 15:22:42;;;;;;;19.40;9.93;;;6.70;99.90;;;;;;5062853;28;20286;-80
2022/12/22 15:25:13;;;;;;;18.90;8.73;;;6.70;99.90;;;;;;5058750;28;20219;-81
2022/12/22 15:27:39;;;;;;;15.93;9.03;;;6.70;99.90;;;;;;5059282;28;20256;-80
2022/12/22 15:30:07;;;;;;;18.07;9.63;;;6.70;99.90;;;;;;5052721;28;20714;-82
2022/12/22 15:32:35;;;;;;;16.50;10.33;;;6.60;99.90;;;;;;5052855;28;20774;-82
2022/12/22 15:35:02;;;;;;;16.20;9.37;;;6.60;99.90;;;;;;5057189;28;20237;-83
2022/12/22 15:37:29;;;;;;;17.53;10.33;;;6.60;99.90;;;;;;5064358;28;20316;-82
2022/12/22 15:39:56;;;;;;;17.73;9.83;;;6.50;99.90;;;;;;5063417;28;20234;-82
2022/12/22 15:42:23;;;;;;;14.97;8.67;;;6.40;99.90;;;;;;5056285;28;20316;-83
2022/12/22 15:44:49;;;;;;;19.93;9.83;;;6.40;99.90;;;;;;5056911;28;20245;-81
2022/12/22 15:47:22;;;;;;;20.70;9.93;;;6.40;99.90;;;;;;5064433;28;20235;-81
2022/12/22 15:49:50;;;;;;;16.53;9.47;;;6.30;99.90;;;;;;5055978;28;20222;-80
2022/12/22 15:52:16;;;;;;;20.23;8.93;;;6.30;99.90;;;;;;5063282;28;20248;-81
2022/12/22 15:54:43;;;;;;;17.67;9.00;;;6.30;99.90;;;;;;5061321;28;20273;-81
2022/12/22 15:57:12;;;;;;;16.97;8.90;;;6.30;99.90;;;;;;5056385;28;20212;-80
2022/12/22 15:59:39;;;;;;;17.17;8.10;;;6.10;99.90;;;;;;5056674;28;20400;-81
2022/12/22 16:02:10;;;;;;;14.37;8.63;;;6.20;99.90;;;;;;5063007;28;20921;-80
2022/12/22 16:04:37;;;;;;;17.70;8.90;;;6.10;99.90;;;;;;5059948;28;20224;-81
2022/12/22 16:07:05;;;;;;;19.50;9.47;;;6.10;99.90;;;;;;5062476;28;20229;-81
2022/12/22 16:09:44;;;;;;;17.73;10.23;;;6.10;99.90;;;;;;5061347;28;20276;-80
2022/12/22 16:12:14;;;;;;;18.03;9.90;;;6.10;99.90;;;;;;5054183;28;20711;-80
2022/12/22 16:14:41;;;;;;;18.17;9.83;;;6.00;99.90;;;;;;5053828;28;20306;-80
2022/12/22 16:17:16;;;;;;;17.83;10.57;;;6.00;99.90;;;;;;5055950;28;20357;-81
2022/12/22 16:19:44;;;;;;;17.43;10.20;;;6.00;99.90;;;;;;5063503;28;20734;-81
2022/12/22 16:22:12;;;;;;;17.10;11.20;;;5.90;99.90;;;;;;5059336;28;20227;-81
2022/12/22 16:24:42;;;;;;;19.77;11.10;;;5.90;99.90;;;;;;5062491;28;20226;-81
2022/12/22 16:27:11;;;;;;;24.67;12.40;;;5.90;99.90;;;;;;5057920;28;21004;-80
2022/12/22 16:29:38;;;;;;;20.73;12.20;;;5.90;99.90;;;;;;5063887;28;20321;-81
2022/12/22 16:32:16;;;;;;;23.87;12.17;;;5.90;99.90;;;;;;5059160;28;20712;-81
2022/12/22 16:34:42;;;;;;;23.77;11.87;;;5.80;99.90;;;;;;5061534;28;20840;-81
2022/12/22 16:37:09;;;;;;;22.83;12.90;;;5.80;99.90;;;;;;5066182;28;20303;-81
2022/12/22 16:39:37;;;;;;;22.43;12.37;;;5.80;99.90;;;;;;5065496;28;20233;-81
2022/12/22 16:42:04;;;;;;;23.40;13.03;;;5.80;99.90;;;;;;5063660;28;20236;-81